createdAt,value
2022-12-27T00:02:04.878Z,99123.75
2022-12-27T00:04:31.459Z,99134.47
2022-12-27T00:06:57.946Z,99137.38
2022-12-27T00:09:24.490Z,99132.34
2022-12-27T00:11:56.337Z,99132.41
2022-12-27T00:14:26.419Z,99145.72
2022-12-27T00:16:52.981Z,99137.84
2022-12-27T00:19:19.642Z,99148.88
2022-12-27T00:21:46.121Z,99141.28
2022-12-27T00:24:12.639Z,99152.78
2022-12-27T00:26:39.461Z,99111.53
2022-12-27T00:29:06.030Z,99115.94
2022-12-27T00:31:33.048Z,99141.00
2022-12-27T00:34:02.329Z,99152.22
2022-12-27T00:36:31.529Z,99162.31
2022-12-27T00:38:59.629Z,99139.72
2022-12-27T00:41:26.995Z,99123.78
2022-12-27T00:43:53.774Z,99147.16
2022-12-27T00:46:22.485Z,99158.25
2022-12-27T00:48:49.160Z,99142.47
2022-12-27T00:51:20.241Z,99155.00
2022-12-27T00:53:47.445Z,99163.44
2022-12-27T00:56:20.353Z,99164.97
2022-12-27T00:58:46.950Z,99156.16
2022-12-27T01:01:18.898Z,99168.16
2022-12-27T01:03:46.094Z,99179.16
2022-12-27T01:06:15.858Z,99177.53
2022-12-27T01:08:43.006Z,99168.66
2022-12-27T01:11:11.080Z,99182.06
2022-12-27T01:13:39.147Z,99172.63
2022-12-27T01:16:14.713Z,99181.97
2022-12-27T01:18:41.575Z,99167.59
2022-12-27T01:21:10.037Z,99186.75
2022-12-27T01:23:36.973Z,99182.81
2022-12-27T01:26:06.429Z,99171.75
2022-12-27T01:28:33.249Z,99186.41
2022-12-27T01:31:08.598Z,99150.56
2022-12-27T01:33:35.687Z,99183.16
2022-12-27T01:36:14.048Z,99184.09
2022-12-27T01:38:42.847Z,99198.03
2022-12-27T01:41:33.832Z,99199.13
2022-12-27T01:44:00.536Z,99182.47
2022-12-27T01:46:28.981Z,99205.59
2022-12-27T01:48:58.676Z,99201.88
2022-12-27T01:51:25.767Z,99183.19
2022-12-27T01:53:53.261Z,99210.28
2022-12-27T01:56:31.339Z,99211.13
2022-12-27T01:59:05.792Z,99194.91
2022-12-27T02:01:43.074Z,99205.69
2022-12-27T02:04:15.190Z,99210.13
2022-12-27T02:06:43.194Z,99214.47
2022-12-27T02:09:28.383Z,99211.81
2022-12-27T02:11:57.181Z,99221.28
2022-12-27T02:14:36.149Z,99187.22
2022-12-27T02:17:06.610Z,99202.31
2022-12-27T02:19:42.202Z,99218.16
2022-12-27T02:22:11.525Z,99218.03
2022-12-27T02:25:12.011Z,99213.47
2022-12-27T02:27:51.825Z,99206.63
2022-12-27T02:30:18.588Z,99201.59
2022-12-27T02:32:54.466Z,99176.66
2022-12-27T02:35:44.543Z,99203.97
2022-12-27T02:38:18.825Z,99208.16
2022-12-27T02:41:05.458Z,99213.59
2022-12-27T02:43:51.472Z,99214.00
2022-12-27T02:46:44.936Z,99211.41
2022-12-27T02:49:49.812Z,99215.97
2022-12-27T02:53:04.145Z,99215.63
2022-12-27T02:56:09.376Z,99208.44
2022-12-27T02:58:54.667Z,99207.84
2022-12-27T03:01:55.802Z,99210.63
2022-12-27T03:04:32.008Z,99212.66
2022-12-27T03:07:04.835Z,99193.34
2022-12-27T03:10:07.744Z,99213.16
2022-12-27T03:13:13.819Z,99203.78
2022-12-27T03:15:57.462Z,99202.81
2022-12-27T03:18:42.849Z,99199.22
2022-12-27T03:21:31.962Z,99196.00
2022-12-27T03:24:20.376Z,99193.38
2022-12-27T03:26:49.874Z,99175.75
2022-12-27T03:29:38.322Z,99193.13
2022-12-27T03:32:29.136Z,99196.59
2022-12-27T03:35:07.683Z,99190.97
2022-12-27T03:37:57.457Z,99194.56
2022-12-27T03:40:34.628Z,99193.34
2022-12-27T03:43:11.981Z,99181.47
2022-12-27T03:46:23.339Z,99192.38
2022-12-27T03:49:04.247Z,99197.81
2022-12-27T03:51:37.411Z,99201.25
2022-12-27T03:54:16.406Z,99204.81
2022-12-27T03:56:42.996Z,99185.78
2022-12-27T03:59:12.217Z,99190.56
2022-12-27T04:01:39.194Z,99189.34
2022-12-27T04:04:05.758Z,99197.38
2022-12-27T04:06:32.481Z,99192.81
2022-12-27T04:09:17.744Z,99197.47
2022-12-27T04:12:02.665Z,99186.22
2022-12-27T04:14:47.997Z,99198.44
2022-12-27T04:17:34.928Z,99190.09
2022-12-27T04:20:20.120Z,99193.72
2022-12-27T04:23:05.578Z,99189.84
2022-12-27T04:25:50.327Z,99171.72
2022-12-27T04:28:35.338Z,99188.72
2022-12-27T04:31:20.444Z,99188.25
2022-12-27T04:34:05.556Z,99201.09
2022-12-27T04:36:32.066Z,99193.44
2022-12-27T04:38:58.559Z,99190.03
2022-12-27T04:41:43.710Z,99210.44
2022-12-27T04:44:28.501Z,99191.50
2022-12-27T04:47:13.911Z,99189.28
2022-12-27T04:49:59.278Z,99201.66
2022-12-27T04:52:44.248Z,99199.03
2022-12-27T04:55:22.353Z,99199.13
2022-12-27T04:57:49.793Z,99192.47
2022-12-27T05:00:35.886Z,99173.81
2022-12-27T05:03:06.518Z,99185.66
2022-12-27T05:05:35.396Z,99187.69
2022-12-27T05:08:21.696Z,99202.91
2022-12-27T05:11:07.021Z,99204.06
2022-12-27T05:13:51.862Z,99196.72
2022-12-27T05:16:18.483Z,99176.84
2022-12-27T05:18:45.073Z,99201.25
2022-12-27T05:21:11.646Z,99190.09
2022-12-27T05:24:01.737Z,99190.44
2022-12-27T05:26:32.194Z,99187.56
2022-12-27T05:28:59.848Z,99199.66
2022-12-27T05:31:28.709Z,99176.22
2022-12-27T05:33:55.921Z,99200.91
2022-12-27T05:36:23.013Z,99203.34
2022-12-27T05:38:49.835Z,99201.75
2022-12-27T05:41:16.497Z,99195.16
2022-12-27T05:43:43.430Z,99199.94
2022-12-27T05:46:14.618Z,99209.81
2022-12-27T05:48:41.466Z,99204.47
2022-12-27T05:51:10.920Z,99202.66
2022-12-27T05:53:38.252Z,99198.66
2022-12-27T05:56:04.919Z,99205.44
2022-12-27T05:58:32.146Z,99199.97
2022-12-27T06:00:59.961Z,99211.94
2022-12-27T06:03:27.383Z,99208.81
2022-12-27T06:06:00.128Z,99211.22
2022-12-27T06:08:26.631Z,99216.34
2022-12-27T06:11:02.629Z,99207.75
2022-12-27T06:13:29.228Z,99197.22
2022-12-27T06:15:58.452Z,99187.06
2022-12-27T06:18:24.957Z,99194.72
2022-12-27T06:20:51.474Z,99204.91
2022-12-27T06:23:17.974Z,99189.56
2022-12-27T06:25:44.459Z,99197.25
2022-12-27T06:28:10.958Z,99194.63
2022-12-27T06:30:37.471Z,99203.44
2022-12-27T06:33:03.992Z,99211.94
2022-12-27T06:35:30.476Z,99208.03
2022-12-27T06:37:56.953Z,99194.34
2022-12-27T06:40:23.444Z,99202.88
2022-12-27T06:42:49.956Z,99209.91
2022-12-27T06:45:16.521Z,99192.16
2022-12-27T06:47:43.026Z,99208.31
2022-12-27T06:50:11.740Z,99200.66
2022-12-27T06:52:38.226Z,99207.50
2022-12-27T06:55:05.186Z,99214.53
2022-12-27T06:57:31.688Z,99213.00
2022-12-27T06:59:58.201Z,99219.09
2022-12-27T07:02:24.782Z,99214.06
2022-12-27T07:04:51.338Z,99210.47
2022-12-27T07:07:17.832Z,99208.06
2022-12-27T07:09:46.561Z,99205.44
2022-12-27T07:12:15.470Z,99207.84
2022-12-27T07:14:45.008Z,99185.69
2022-12-27T07:17:14.629Z,99174.22
2022-12-27T07:19:44.163Z,99199.75
2022-12-27T07:22:11.704Z,99215.97
2022-12-27T07:24:38.214Z,99206.59
2022-12-27T07:27:05.256Z,99176.94
2022-12-27T07:29:31.809Z,99188.72
2022-12-27T07:31:58.350Z,99201.03
2022-12-27T07:34:26.113Z,99202.81
2022-12-27T07:36:54.915Z,99193.66
2022-12-27T07:39:21.385Z,99204.38
2022-12-27T07:41:47.890Z,99192.72
2022-12-27T07:44:14.388Z,99206.28
2022-12-27T07:46:45.756Z,99210.47
2022-12-27T07:49:17.934Z,99209.31
2022-12-27T07:51:44.765Z,99208.34
2022-12-27T07:54:15.072Z,99213.31
2022-12-27T07:56:42.871Z,99217.97
2022-12-27T07:59:14.515Z,99217.53
2022-12-27T08:02:02.731Z,99223.09
2022-12-27T08:04:30.045Z,99198.94
2022-12-27T08:07:20.185Z,99222.69
2022-12-27T08:09:48.615Z,99221.50
2022-12-27T08:12:16.129Z,99206.47
2022-12-27T08:14:43.805Z,99189.41
2022-12-27T08:17:20.516Z,99201.47
2022-12-27T08:19:47.222Z,99191.31
2022-12-27T08:22:14.044Z,99174.84
2022-12-27T08:24:42.737Z,99170.34
2022-12-27T08:27:13.190Z,99189.69
2022-12-27T08:29:42.421Z,99167.38
2022-12-27T08:32:08.949Z,99187.13
2022-12-27T08:34:35.448Z,99188.56
2022-12-27T08:37:01.973Z,99190.63
2022-12-27T08:39:30.023Z,99181.19
2022-12-27T08:41:56.621Z,99183.69
2022-12-27T08:44:23.838Z,99190.38
2022-12-27T08:46:50.418Z,99192.09
2022-12-27T08:49:16.920Z,99182.78
2022-12-27T08:51:43.396Z,99192.44
2022-12-27T08:54:12.459Z,99188.47
2022-12-27T08:56:38.979Z,99200.09
2022-12-27T08:59:05.571Z,99194.06
2022-12-27T09:01:32.712Z,99187.72
2022-12-27T09:03:59.545Z,99193.03
2022-12-27T09:06:27.724Z,99202.84
2022-12-27T09:08:56.004Z,99170.25
2022-12-27T09:11:33.832Z,99197.84
2022-12-27T09:14:03.225Z,99193.56
2022-12-27T09:16:30.491Z,99192.06
2022-12-27T09:18:59.237Z,99201.28
2022-12-27T09:21:29.364Z,99201.41
2022-12-27T09:23:56.248Z,99202.13
2022-12-27T09:26:26.250Z,99192.56
2022-12-27T09:28:54.187Z,99208.16
2022-12-27T09:31:21.791Z,99198.34
2022-12-27T09:33:48.485Z,99207.31
2022-12-27T09:36:20.872Z,99213.59
2022-12-27T09:38:48.560Z,99206.97
2022-12-27T09:42:45.897Z,99201.88
2022-12-27T09:44:58.301Z,99199.56
2022-12-27T09:47:28.189Z,99205.06
2022-12-27T09:50:03.331Z,99181.13
2022-12-27T09:52:37.499Z,99211.72
2022-12-27T09:55:23.696Z,99199.06
2022-12-27T09:57:55.269Z,99216.69
2022-12-27T10:00:34.419Z,99213.91
2022-12-27T10:03:06.024Z,99221.03
2022-12-27T10:05:36.441Z,99204.81
2022-12-27T10:08:36.138Z,99221.19
2022-12-27T10:11:37.231Z,99215.34
2022-12-27T10:14:09.562Z,99190.84
2022-12-27T10:17:12.798Z,99206.84
2022-12-27T10:19:51.480Z,99214.06
2022-12-27T10:22:33.757Z,99202.66
2022-12-27T10:25:04.114Z,99207.25
2022-12-27T10:27:31.833Z,99185.78
2022-12-27T10:30:00.159Z,99213.91
2022-12-27T10:32:27.322Z,99210.09
2022-12-27T10:34:57.011Z,99175.09
2022-12-27T10:37:23.788Z,99212.59
2022-12-27T10:39:50.329Z,99210.72
2022-12-27T10:42:45.502Z,99203.34
2022-12-27T10:45:26.508Z,99190.84
2022-12-27T10:47:56.177Z,99200.22
2022-12-27T10:50:27.002Z,99200.34
2022-12-27T10:52:57.503Z,99204.38
2022-12-27T10:55:46.639Z,99198.59
2022-12-27T10:58:32.624Z,99193.25
2022-12-27T11:00:59.227Z,99194.03
2022-12-27T11:03:26.700Z,99188.06
2022-12-27T11:06:02.269Z,99184.78
2022-12-27T11:08:30.078Z,99173.22
2022-12-27T11:11:24.243Z,99166.97
2022-12-27T11:13:51.708Z,99182.88
2022-12-27T11:16:36.063Z,99173.41
2022-12-27T11:19:04.227Z,99171.72
2022-12-27T11:21:31.822Z,99165.38
2022-12-27T11:24:01.372Z,99176.25
2022-12-27T11:26:32.681Z,99159.47
2022-12-27T11:29:03.681Z,99172.34
2022-12-27T11:31:40.607Z,99176.34
2022-12-27T11:34:16.782Z,99166.09
2022-12-27T11:36:47.663Z,99169.19
2022-12-27T11:39:44.590Z,99173.09
2022-12-27T11:42:24.202Z,99157.34
2022-12-27T11:45:05.015Z,99166.66
2022-12-27T11:47:44.764Z,99159.91
2022-12-27T11:50:26.514Z,99166.69
2022-12-27T11:53:26.829Z,99166.66
2022-12-27T11:56:13.935Z,99165.34
2022-12-27T11:58:55.790Z,99160.97
2022-12-27T12:01:50.088Z,99157.06
2022-12-27T12:04:25.505Z,99148.09
2022-12-27T12:07:27.786Z,99141.84
2022-12-27T12:10:06.803Z,99152.31
2022-12-27T12:12:58.370Z,99150.78
2022-12-27T12:15:44.882Z,99134.31
2022-12-27T12:18:18.057Z,99143.38
2022-12-27T12:21:12.486Z,99149.31
2022-12-27T12:23:57.296Z,99140.25
2022-12-27T12:26:32.415Z,99135.06
2022-12-27T12:29:13.927Z,99132.56
2022-12-27T12:32:13.517Z,99132.56
2022-12-27T12:35:18.223Z,99109.00
2022-12-27T12:37:57.036Z,99116.19
2022-12-27T12:40:42.669Z,99111.41
2022-12-27T12:43:17.998Z,99113.22
2022-12-27T12:46:15.778Z,99089.81
2022-12-27T12:48:57.956Z,99099.53
2022-12-27T12:51:43.190Z,99093.00
2022-12-27T12:54:22.522Z,99071.50
2022-12-27T12:57:07.540Z,99080.50
2022-12-27T12:59:40.646Z,99082.63
2022-12-27T13:02:32.261Z,99078.00
2022-12-27T13:05:29.669Z,99088.44
2022-12-27T13:08:05.398Z,99084.00
2022-12-27T13:10:50.234Z,99085.56
2022-12-27T13:13:36.426Z,99083.00
2022-12-27T13:16:17.636Z,99070.09
2022-12-27T13:19:06.824Z,99070.94
2022-12-27T13:21:43.094Z,99060.09
2022-12-27T13:24:33.426Z,99061.78
2022-12-27T13:27:42.150Z,99052.94
2022-12-27T13:30:21.464Z,99047.47
2022-12-27T13:32:50.754Z,99045.47
2022-12-27T13:35:20.541Z,99043.22
2022-12-27T13:38:11.998Z,99051.31
2022-12-27T13:41:11.562Z,99039.69
2022-12-27T13:44:04.399Z,99026.88
2022-12-27T13:47:01.367Z,99037.69
2022-12-27T13:49:42.113Z,99042.50
2022-12-27T13:52:16.456Z,99035.91
2022-12-27T13:54:57.931Z,99044.09
2022-12-27T13:57:58.233Z,99037.84
2022-12-27T14:00:31.835Z,99033.34
2022-12-27T14:03:23.091Z,99028.97
2022-12-27T14:06:14.119Z,99033.28
2022-12-27T14:09:05.331Z,99029.91
2022-12-27T14:12:13.416Z,99025.63
2022-12-27T14:14:44.704Z,99018.91
2022-12-27T14:17:20.104Z,99027.69
2022-12-27T14:20:04.971Z,99033.16
2022-12-27T14:22:53.805Z,99027.25
2022-12-27T14:25:52.100Z,99018.69
2022-12-27T14:28:33.857Z,99021.81
2022-12-27T14:31:14.743Z,99021.94
2022-12-27T14:34:03.082Z,99014.25
2022-12-27T14:36:35.625Z,99022.88
2022-12-27T14:39:18.993Z,99019.69
2022-12-27T14:42:19.459Z,99023.72
2022-12-27T14:45:23.345Z,99029.75
2022-12-27T14:48:24.217Z,99018.63
2022-12-27T14:51:41.523Z,99020.94
2022-12-27T14:54:46.737Z,99017.06
2022-12-27T14:57:46.714Z,99027.91
2022-12-27T15:00:28.298Z,99024.44
2022-12-27T15:03:39.543Z,99029.44
2022-12-27T15:06:18.440Z,99028.78
2022-12-27T15:09:15.737Z,99041.09
2022-12-27T15:11:56.685Z,99034.91
2022-12-27T15:14:28.728Z,99030.16
2022-12-27T15:17:27.975Z,99023.22
2022-12-27T15:20:27.632Z,99025.47
2022-12-27T15:23:15.812Z,99021.84
2022-12-27T15:26:07.267Z,99030.56
2022-12-27T15:28:55.396Z,99028.72
2022-12-27T15:31:59.543Z,99030.78
2022-12-27T15:35:06.758Z,99011.88
2022-12-27T15:38:09.485Z,99032.75
2022-12-27T15:40:39.548Z,99033.66
2022-12-27T15:43:24.692Z,99034.66
2022-12-27T15:46:09.364Z,99030.47
2022-12-27T15:48:54.532Z,99033.84
2022-12-27T15:51:27.070Z,99031.66
2022-12-27T15:54:30.650Z,99038.47
2022-12-27T15:57:18.609Z,99024.03
2022-12-27T16:00:05.415Z,99031.94
2022-12-27T16:02:37.552Z,99022.28
2022-12-27T16:05:51.886Z,99017.69
2022-12-27T16:08:25.959Z,99001.72
2022-12-27T16:10:53.498Z,99011.06
2022-12-27T16:13:27.632Z,99012.06
2022-12-27T16:15:55.301Z,99028.34
2022-12-27T16:18:24.848Z,99032.97
2022-12-27T16:21:11.069Z,99010.00
2022-12-27T16:23:46.648Z,99026.59
2022-12-27T16:26:16.229Z,99030.50
2022-12-27T16:29:05.812Z,99028.53
2022-12-27T16:31:37.882Z,99016.72
2022-12-27T16:34:30.309Z,99030.91
2022-12-27T16:37:00.625Z,99017.78
2022-12-27T16:39:45.089Z,99027.03
2022-12-27T16:42:11.590Z,99026.84
2022-12-27T16:44:57.458Z,99012.88
2022-12-27T16:47:39.203Z,99028.06
2022-12-27T16:50:25.942Z,99025.16
2022-12-27T16:52:55.180Z,99022.38
2022-12-27T16:55:40.708Z,99019.31
2022-12-27T16:58:27.403Z,99024.63
2022-12-27T17:00:56.606Z,99016.56
2022-12-27T17:03:32.141Z,99016.56
2022-12-27T17:09:06.333Z,99017.22
2022-12-27T17:11:55.126Z,99001.94
2022-12-27T17:14:31.789Z,98985.38
2022-12-27T17:17:31.116Z,99015.88
2022-12-27T17:20:01.912Z,99002.63
2022-12-27T17:22:34.965Z,98993.03
2022-12-27T17:25:03.404Z,98997.22
2022-12-27T17:27:54.648Z,99007.41
2022-12-27T17:30:23.676Z,98995.69
2022-12-27T17:33:15.305Z,98994.56
2022-12-27T17:35:50.846Z,98996.94
2022-12-27T17:38:39.298Z,98990.13
2022-12-27T17:41:52.061Z,98986.59
2022-12-27T17:44:47.092Z,98983.81
2022-12-27T17:47:26.003Z,98971.69
2022-12-27T17:49:54.245Z,98978.09
2022-12-27T17:52:44.692Z,98977.63
2022-12-27T17:55:40.503Z,98973.44
2022-12-27T17:58:17.349Z,98969.41
2022-12-27T18:00:50.426Z,98986.50
2022-12-27T18:03:17.779Z,98964.66
2022-12-27T18:05:47.455Z,98942.50
2022-12-27T18:08:24.767Z,98982.22
2022-12-27T18:10:52.051Z,98953.19
2022-12-27T18:13:26.467Z,98956.81
2022-12-27T18:15:53.932Z,98972.41
2022-12-27T18:18:29.820Z,98964.56
2022-12-27T18:20:59.939Z,98980.16
2022-12-27T18:23:26.943Z,98983.75
2022-12-27T18:26:12.922Z,98983.06
2022-12-27T18:28:48.611Z,98938.84
2022-12-27T18:31:25.885Z,98961.41
2022-12-27T18:34:03.500Z,98988.31
2022-12-27T18:36:40.558Z,98959.97
2022-12-27T18:39:19.508Z,98987.13
2022-12-27T18:41:56.840Z,98975.59
2022-12-27T18:44:49.812Z,98983.41
2022-12-27T18:47:23.246Z,98970.41
2022-12-27T18:50:00.186Z,98968.78
2022-12-27T18:52:35.580Z,98953.19
2022-12-27T18:55:17.048Z,98919.13
2022-12-27T18:58:20.904Z,98933.88
2022-12-27T19:01:28.247Z,98981.50
2022-12-27T19:04:30.677Z,98980.97
2022-12-27T19:07:29.241Z,98927.91
2022-12-27T19:10:18.852Z,98977.06
2022-12-27T19:12:47.724Z,98922.22
2022-12-27T19:15:35.342Z,98981.22
2022-12-27T19:18:05.699Z,98979.69
2022-12-27T19:20:36.626Z,98973.31
2022-12-27T19:23:07.718Z,98944.47
2022-12-27T19:25:38.361Z,98968.88
2022-12-27T19:28:11.824Z,98974.59
2022-12-27T19:30:42.713Z,98942.72
2022-12-27T19:33:18.081Z,98971.69
2022-12-27T19:35:44.671Z,98958.81
2022-12-27T19:38:23.238Z,98970.53
2022-12-27T19:40:58.109Z,98932.00
2022-12-27T19:43:41.666Z,98973.53
2022-12-27T19:46:13.603Z,98968.09
2022-12-27T19:48:40.303Z,98972.19
2022-12-27T19:51:07.637Z,98935.72
2022-12-27T19:53:38.342Z,98964.56
2022-12-27T19:56:07.756Z,98965.13
2022-12-27T19:58:34.849Z,98925.44
2022-12-27T20:01:01.574Z,98942.53
2022-12-27T20:03:28.275Z,98932.25
2022-12-27T20:06:12.948Z,98957.88
2022-12-27T20:08:45.682Z,98922.31
2022-12-27T20:11:19.389Z,98953.69
2022-12-27T20:13:50.880Z,98955.63
2022-12-27T20:16:20.539Z,98952.63
2022-12-27T20:18:48.770Z,98924.66
2022-12-27T20:21:21.517Z,98953.59
2022-12-27T20:23:50.194Z,98952.78
2022-12-27T20:26:23.169Z,98926.13
2022-12-27T20:28:53.388Z,98951.34
2022-12-27T20:31:21.378Z,98932.00
2022-12-27T20:33:55.328Z,98940.97
2022-12-27T20:36:23.252Z,98945.03
2022-12-27T20:38:53.098Z,98937.72
2022-12-27T20:41:21.553Z,98942.03
2022-12-27T20:43:56.063Z,98928.28
2022-12-27T20:46:23.248Z,98924.22
2022-12-27T20:48:55.395Z,98945.38
2022-12-27T20:51:25.277Z,98938.41
2022-12-27T20:54:02.425Z,98914.19
2022-12-27T20:56:29.173Z,98936.66
2022-12-27T20:58:55.767Z,98907.25
2022-12-27T21:01:24.587Z,98942.06
2022-12-27T21:03:51.541Z,98938.22
2022-12-27T21:06:23.966Z,98945.47
2022-12-27T21:08:56.568Z,98944.69
2022-12-27T21:11:31.172Z,98927.81
2022-12-27T21:13:59.499Z,98921.88
2022-12-27T21:16:28.182Z,98943.19
2022-12-27T21:18:55.671Z,98938.63
2022-12-27T21:21:27.646Z,98936.00
2022-12-27T21:23:56.352Z,98937.66
2022-12-27T21:26:25.331Z,98955.25
2022-12-27T21:28:52.155Z,98921.50
2022-12-27T21:31:20.578Z,98952.97
2022-12-27T21:33:48.522Z,98950.97
2022-12-27T21:36:27.045Z,98947.00
2022-12-27T21:38:54.741Z,98946.91
2022-12-27T21:41:24.239Z,98952.06
2022-12-27T21:43:54.183Z,98921.03
2022-12-27T21:46:23.092Z,98889.31
2022-12-27T21:49:03.169Z,98947.13
2022-12-27T21:51:31.416Z,98945.31
2022-12-27T21:53:58.500Z,98930.38
2022-12-27T21:56:25.812Z,98937.44
2022-12-27T21:58:55.568Z,98939.34
2022-12-27T22:01:28.328Z,98917.56
2022-12-27T22:03:56.432Z,98933.97
2022-12-27T22:06:22.988Z,98937.19
2022-12-27T22:08:55.856Z,98942.22
2022-12-27T22:14:25.601Z,98930.97
2022-12-27T22:16:53.001Z,98923.09
2022-12-27T22:19:21.553Z,98943.31
2022-12-27T22:21:48.040Z,98940.78
2022-12-27T22:24:19.386Z,98919.13
2022-12-27T22:26:52.832Z,98943.53
2022-12-27T22:29:19.523Z,98942.22
2022-12-27T22:31:46.618Z,98935.16
2022-12-27T22:34:13.206Z,98914.13
2022-12-27T22:36:39.792Z,98915.66
2022-12-27T22:39:06.444Z,98899.41
2022-12-27T22:41:35.345Z,98922.56
2022-12-27T22:44:11.468Z,98927.13
2022-12-27T22:47:06.802Z,98919.13
2022-12-27T22:49:26.154Z,98901.16
2022-12-27T22:51:56.913Z,98888.63
2022-12-27T22:55:02.975Z,98932.63
2022-12-27T22:57:13.980Z,98904.88
2022-12-27T22:59:40.732Z,98917.34
2022-12-27T23:02:07.759Z,98900.34
2022-12-27T23:04:34.716Z,98931.09
2022-12-27T23:07:02.423Z,98900.44
2022-12-27T23:09:29.677Z,98935.97
2022-12-27T23:11:56.362Z,98937.41
2022-12-27T23:14:25.738Z,98905.47
2022-12-27T23:16:59.949Z,98925.19
2022-12-27T23:19:26.707Z,98890.03
2022-12-27T23:21:55.321Z,98899.38
2022-12-27T23:24:22.159Z,98931.44
2022-12-27T23:26:49.261Z,98909.78
2022-12-27T23:29:15.927Z,98907.75
2022-12-27T23:31:54.053Z,98885.75
2022-12-27T23:34:27.570Z,98875.81
2022-12-27T23:36:56.857Z,98883.81
2022-12-27T23:39:31.237Z,98910.88
2022-12-27T23:41:57.751Z,98892.94
2022-12-27T23:44:33.643Z,98902.97
2022-12-27T23:47:05.390Z,98885.25
2022-12-27T23:49:32.310Z,98862.28
2022-12-27T23:51:58.899Z,98878.34
2022-12-27T23:54:25.454Z,98866.81
2022-12-27T23:56:51.979Z,98879.28
2022-12-27T23:59:18.506Z,98869.78
